Terminal Aerodrome Forecast
Issued by NWS Burlington, VT

Home | Current Version | Previous Version | Text Only | Print | Product List | Glossary On
Versions: 1 2 3 4 5 6 7 8 9 10 11 12 13 14 15 16 17 18
000
FTUS41 KBTV 220538 AAB
TAFBTV
TAF AMD
KBTV 220538Z 2206/2306 35007KT 6SM -DZ OVC005
      TEMPO 2206/2210 3SM -RA BR OVC003
     FM221000 35008KT 1SM -DZ BR OVC004
     FM221400 35008KT 2SM -RA BR OVC007
     FM221800 36012G17KT 5SM -RA BR OVC008=

USA.gov is the U.S. government's official web portal to all federal, state and local government web resources and services.